Time;durP1;ratioP1;P1;durP2;ratioP2;P2;SDS_P1;SDS_P2;PMS_P1;PMS_P2;Temp;Humidity;BMP_temperature;BMP_pressure;BME280_temperature;BME280_humidity;BME280_pressure;Samples;Min_cycle;Max_cycle;Signal;HPM_P1;HPM_P2
2023/03/19 05:46:31;;;;;;;21.90;5.70;;;15.50;71.20;;;;;;5168359;24;20062;-71
2023/03/19 05:48:56;;;;;;;13.40;6.05;;;15.60;71.20;;;;;;4808149;29;20054;-68
2023/03/19 05:51:22;;;;;;;13.85;5.47;;;15.60;71.30;;;;;;4808180;29;20510;-73
2023/03/19 05:53:48;;;;;;;10.93;5.57;;;15.60;71.40;;;;;;4807411;29;20507;-71
2023/03/19 05:56:13;;;;;;;14.23;5.30;;;15.60;71.40;;;;;;4808070;29;20051;-70
2023/03/19 05:58:39;;;;;;;15.07;6.05;;;15.70;71.50;;;;;;4802842;29;20097;-71
2023/03/19 06:01:05;;;;;;;18.25;5.57;;;15.70;71.70;;;;;;4801919;29;20130;-74
2023/03/19 06:03:31;;;;;;;26.75;6.53;;;15.90;71.70;;;;;;4808253;29;20125;-73
2023/03/19 06:05:57;;;;;;;14.27;5.65;;;16.00;71.80;;;;;;4808331;29;20055;-73
2023/03/19 06:08:23;;;;;;;18.95;5.93;;;16.10;71.80;;;;;;4808864;29;20058;-73
2023/03/19 06:10:48;;;;;;;17.00;5.78;;;16.20;71.90;;;;;;4807867;29;20054;-74
2023/03/19 06:13:14;;;;;;;20.08;5.68;;;16.20;72.10;;;;;;4807846;29;20051;-75
2023/03/19 06:15:40;;;;;;;18.02;5.38;;;16.30;72.30;;;;;;4807929;29;20054;-73
2023/03/19 06:18:07;;;;;;;23.95;5.68;;;16.40;72.30;;;;;;4807900;29;20057;-74
2023/03/19 06:20:33;;;;;;;28.33;7.00;;;16.40;72.40;;;;;;4808062;29;20121;-73
2023/03/19 06:22:58;;;;;;;35.30;6.22;;;16.40;72.30;;;;;;4807890;29;20435;-73
2023/03/19 06:25:24;;;;;;;22.23;5.85;;;16.50;72.60;;;;;;4808008;29;20051;-70
2023/03/19 06:27:50;;;;;;;24.15;6.22;;;16.50;72.70;;;;;;4804579;29;20371;-72
2023/03/19 06:30:16;;;;;;;25.65;6.00;;;16.50;72.90;;;;;;4790935;29;20051;-76
2023/03/19 06:32:41;;;;;;;26.60;7.32;;;16.50;72.90;;;;;;4802917;29;20130;-72
2023/03/19 06:35:08;;;;;;;32.88;6.15;;;16.30;71.90;;;;;;4807308;29;20439;-72
2023/03/19 06:37:33;;;;;;;20.98;5.90;;;16.30;72.80;;;;;;4808283;29;20428;-72
2023/03/19 06:39:59;;;;;;;36.22;7.72;;;16.30;73.20;;;;;;4807959;29;20047;-72
2023/03/19 06:42:25;;;;;;;22.60;6.25;;;16.30;73.40;;;;;;4807864;29;20043;-73
2023/03/19 06:44:51;;;;;;;28.58;7.72;;;16.30;73.50;;;;;;4807612;29;20058;-74
2023/03/19 06:47:18;;;;;;;29.85;7.13;;;16.20;73.80;;;;;;4821960;29;20532;-73
2023/03/19 06:49:44;;;;;;;19.38;6.50;;;16.20;73.90;;;;;;4807569;29;20059;-73
2023/03/19 06:52:10;;;;;;;40.42;7.43;;;16.20;73.90;;;;;;4807772;29;20462;-74
2023/03/19 06:54:35;;;;;;;22.50;6.78;;;16.20;74.10;;;;;;4808003;29;20043;-73
2023/03/19 06:57:01;;;;;;;47.45;7.57;;;16.20;74.10;;;;;;4807679;29;20061;-73
2023/03/19 06:59:27;;;;;;;31.88;7.95;;;16.20;74.00;;;;;;4807496;29;20090;-73
2023/03/19 07:01:53;;;;;;;35.33;8.13;;;16.10;72.90;;;;;;4808034;29;20115;-78
2023/03/19 07:04:19;;;;;;;28.75;7.13;;;16.10;73.30;;;;;;4806939;29;20351;-73
2023/03/19 07:06:44;;;;;;;31.92;9.15;;;16.10;73.40;;;;;;4801010;29;20067;-76
2023/03/19 07:09:10;;;;;;;25.67;9.05;;;16.10;73.40;;;;;;4799106;29;20065;-74
2023/03/19 07:11:36;;;;;;;38.40;10.95;;;16.10;73.10;;;;;;4807019;29;20079;-75
2023/03/19 07:14:02;;;;;;;27.85;10.88;;;16.10;72.60;;;;;;4807201;29;20078;-75
2023/03/19 07:16:28;;;;;;;32.60;9.95;;;16.10;72.60;;;;;;4803255;29;20055;-74
2023/03/19 07:18:55;;;;;;;35.63;10.40;;;16.10;72.60;;;;;;4789502;30;20130;-72
2023/03/19 07:21:21;;;;;;;27.70;9.68;;;16.10;72.70;;;;;;4790161;29;20047;-74
2023/03/19 07:23:46;;;;;;;33.10;11.18;;;16.10;72.60;;;;;;4790335;29;20067;-71
2023/03/19 07:26:12;;;;;;;35.53;11.65;;;16.10;72.50;;;;;;4790952;29;20050;-72
2023/03/19 07:28:38;;;;;;;32.72;11.32;;;16.10;72.40;;;;;;4792955;29;20065;-71
2023/03/19 07:31:05;;;;;;;32.50;12.95;;;16.10;72.00;;;;;;4797105;29;20054;-74
2023/03/19 07:33:31;;;;;;;30.70;11.65;;;15.90;70.20;;;;;;4805419;29;20055;-72
2023/03/19 07:35:56;;;;;;;39.42;12.23;;;15.80;71.10;;;;;;4792889;29;20150;-71
2023/03/19 07:38:22;;;;;;;36.42;11.50;;;15.90;71.60;;;;;;4793321;29;20107;-74
2023/03/19 07:40:49;;;;;;;34.70;12.05;;;15.90;71.70;;;;;;4792001;29;20047;-73
2023/03/19 07:43:15;;;;;;;29.05;11.45;;;15.90;71.50;;;;;;4792774;29;20134;-74
2023/03/19 07:45:41;;;;;;;33.58;12.85;;;15.90;71.50;;;;;;4794121;29;20433;-73
2023/03/19 07:48:07;;;;;;;34.15;12.30;;;15.90;71.40;;;;;;4792382;30;20063;-73
2023/03/19 07:50:33;;;;;;;31.67;11.82;;;15.80;71.40;;;;;;4805850;29;20059;-73
2023/03/19 07:52:58;;;;;;;32.70;13.02;;;15.80;71.40;;;;;;4810353;29;20469;-73
2023/03/19 07:55:24;;;;;;;24.13;11.52;;;15.80;71.40;;;;;;4810314;29;20043;-74
2023/03/19 07:57:50;;;;;;;31.20;12.52;;;15.80;71.30;;;;;;4809605;29;20498;-73
2023/03/19 08:00:17;;;;;;;33.08;11.30;;;15.80;71.40;;;;;;4810090;29;20085;-74
2023/03/19 08:02:42;;;;;;;38.88;12.93;;;15.80;71.30;;;;;;4810251;29;20051;-74
2023/03/19 08:05:08;;;;;;;41.40;12.52;;;15.80;71.40;;;;;;4806890;29;20437;-72
2023/03/19 08:07:35;;;;;;;33.72;13.07;;;15.80;71.40;;;;;;4795106;29;20069;-72
2023/03/19 08:10:02;;;;;;;39.58;13.40;;;15.80;71.40;;;;;;4808097;29;20046;-72
2023/03/19 08:12:28;;;;;;;46.05;13.30;;;15.80;71.50;;;;;;4809665;29;20047;-72
2023/03/19 08:14:54;;;;;;;32.05;12.63;;;15.80;71.40;;;;;;4809374;29;20435;-71
2023/03/19 08:17:20;;;;;;;33.75;13.48;;;15.80;71.40;;;;;;4809370;29;20100;-72
2023/03/19 08:19:46;;;;;;;27.42;11.68;;;15.80;71.40;;;;;;4809449;29;20127;-74
2023/03/19 08:22:12;;;;;;;29.35;11.60;;;15.80;71.30;;;;;;4809366;29;20054;-71
2023/03/19 08:24:38;;;;;;;22.33;11.98;;;15.80;71.30;;;;;;4809098;29;20351;-75
2023/03/19 08:27:04;;;;;;;28.00;11.10;;;15.80;71.20;;;;;;4809152;29;20054;-77
2023/03/19 08:29:29;;;;;;;27.50;12.80;;;15.80;71.10;;;;;;4808384;29;20096;-72
2023/03/19 08:31:57;;;;;;;24.10;12.00;;;15.80;71.00;;;;;;4807983;29;20051;-72
2023/03/19 08:34:23;;;;;;;20.05;10.30;;;15.80;71.00;;;;;;4803864;29;20097;-72
2023/03/19 08:36:49;;;;;;;25.65;10.55;;;15.80;71.00;;;;;;4796173;29;20400;-71
2023/03/19 08:39:15;;;;;;;19.20;10.07;;;15.80;70.90;;;;;;4791031;29;20157;-74
2023/03/19 08:41:40;;;;;;;19.23;10.52;;;15.70;71.00;;;;;;4791790;29;20138;-75
2023/03/19 08:44:06;;;;;;;23.15;10.98;;;15.80;70.80;;;;;;4791935;30;20193;-71
2023/03/19 08:46:32;;;;;;;22.50;10.60;;;15.80;70.80;;;;;;4791448;30;20471;-71
2023/03/19 08:48:59;;;;;;;14.57;9.60;;;15.70;70.70;;;;;;4803500;29;20062;-71
2023/03/19 08:51:26;;;;;;;25.38;11.13;;;15.70;70.70;;;;;;4809373;29;20090;-71
2023/03/19 08:53:52;;;;;;;19.33;9.73;;;15.70;70.70;;;;;;4809482;29;20050;-73
2023/03/19 08:56:17;;;;;;;18.02;9.48;;;15.70;70.70;;;;;;4808480;29;20069;-72
2023/03/19 08:58:44;;;;;;;16.52;9.48;;;15.80;70.70;;;;;;4806702;29;20463;-72
2023/03/19 09:01:12;;;;;;;18.75;10.63;;;15.80;70.80;;;;;;4807264;29;20038;-70
2023/03/19 09:03:40;;;;;;;17.13;10.15;;;15.80;71.50;;;;;;4808500;29;20051;-71
2023/03/19 09:06:08;;;;;;;21.10;11.15;;;15.80;72.00;;;;;;4808648;29;20054;-73
2023/03/19 09:08:35;;;;;;;13.90;9.90;;;15.90;71.90;;;;;;4808357;29;20059;-70
2023/03/19 09:11:01;;;;;;;15.85;9.25;;;16.00;71.80;;;;;;4807784;29;20066;-75
2023/03/19 09:13:26;;;;;;;16.50;9.25;;;16.00;71.60;;;;;;4805659;29;20050;-75
2023/03/19 09:15:52;;;;;;;14.70;9.52;;;16.00;71.10;;;;;;4808917;29;20123;-72
2023/03/19 09:18:24;;;;;;;17.08;9.68;;;16.00;70.60;;;;;;4809100;29;20123;-71
2023/03/19 09:20:50;;;;;;;17.48;9.65;;;16.00;70.20;;;;;;4809159;29;20059;-71
2023/03/19 09:23:16;;;;;;;17.15;9.75;;;15.90;69.90;;;;;;4809015;29;20367;-71
2023/03/19 09:25:42;;;;;;;16.20;10.25;;;15.90;69.80;;;;;;4808646;29;20051;-71
2023/03/19 09:28:07;;;;;;;19.00;8.75;;;15.90;69.90;;;;;;4809065;29;20059;-74
2023/03/19 09:30:33;;;;;;;19.33;10.13;;;15.90;69.80;;;;;;4808916;29;20058;-75
2023/03/19 09:32:59;;;;;;;28.08;10.43;;;15.80;69.60;;;;;;4808014;29;20051;-74
2023/03/19 09:35:30;;;;;;;28.75;10.02;;;15.80;69.50;;;;;;4807761;29;20474;-75
2023/03/19 09:37:56;;;;;;;21.52;10.00;;;15.80;69.50;;;;;;4794788;29;20046;-74
2023/03/19 09:40:27;;;;;;;27.33;10.30;;;15.70;69.50;;;;;;4800246;29;20055;-75
2023/03/19 09:43:26;;;;;;;31.65;10.05;;;15.80;69.60;;;;;;4790207;29;20065;-75
2023/03/19 09:45:52;;;;;;;31.40;9.88;;;15.90;69.90;;;;;;4787666;29;20480;-73
2023/03/19 09:48:33;;;;;;;28.65;8.43;;;16.10;70.00;;;;;;4795215;29;20141;-73
2023/03/19 09:51:01;;;;;;;42.13;10.70;;;16.20;69.90;;;;;;4807486;29;20047;-77
2023/03/19 09:53:42;;;;;;;44.90;9.90;;;16.30;70.00;;;;;;4808303;29;20169;-74
2023/03/19 09:56:13;;;;;;;19.20;7.93;;;16.40;70.30;;;;;;4807534;29;20063;-74
2023/03/19 09:58:39;;;;;;;31.05;9.13;;;16.20;67.60;;;;;;4807689;29;20051;-71
2023/03/19 10:01:06;;;;;;;36.58;10.00;;;16.10;68.40;;;;;;4807961;29;20051;-73
2023/03/19 10:03:43;;;;;;;35.03;9.23;;;16.00;69.20;;;;;;4807308;29;20378;-73
2023/03/19 10:06:31;;;;;;;29.52;8.85;;;16.00;69.70;;;;;;4808514;29;20134;-73
2023/03/19 10:08:57;;;;;;;29.77;8.77;;;15.90;70.60;;;;;;4808206;29;20097;-78
2023/03/19 10:11:35;;;;;;;31.58;9.85;;;15.90;70.30;;;;;;4807761;29;20485;-75
2023/03/19 10:14:16;;;;;;;26.10;8.43;;;15.90;70.50;;;;;;4807720;29;20090;-76
2023/03/19 10:16:46;;;;;;;22.85;7.80;;;16.00;70.50;;;;;;4808198;29;20070;-74
2023/03/19 10:19:17;;;;;;;25.40;8.00;;;16.00;70.10;;;;;;4806764;29;20043;-75
2023/03/19 10:21:52;;;;;;;21.95;8.55;;;16.00;69.60;;;;;;4822391;29;20059;-75
2023/03/19 10:24:26;;;;;;;17.50;6.82;;;16.00;69.40;;;;;;4807825;29;20070;-74
2023/03/19 10:27:14;;;;;;;18.40;7.35;;;16.00;69.20;;;;;;4807895;29;20050;-74
2023/03/19 10:29:40;;;;;;;18.90;7.55;;;16.00;69.10;;;;;;4808389;29;20061;-76
2023/03/19 10:32:17;;;;;;;20.42;7.38;;;16.00;69.20;;;;;;4807436;29;20370;-75
2023/03/19 10:34:45;;;;;;;16.35;6.97;;;16.00;69.10;;;;;;4807839;29;20047;-75
2023/03/19 10:37:27;;;;;;;14.02;7.15;;;16.00;69.10;;;;;;4807846;29;20155;-75
2023/03/19 10:39:58;;;;;;;15.35;6.18;;;16.00;69.00;;;;;;4807847;29;20133;-73
2023/03/19 10:42:41;;;;;;;12.02;6.22;;;16.00;69.00;;;;;;4807809;29;20055;-74
2023/03/19 10:45:17;;;;;;;14.02;6.40;;;16.00;68.90;;;;;;4807906;29;20137;-74
2023/03/19 10:47:44;;;;;;;13.77;6.97;;;16.00;69.00;;;;;;4806737;29;20487;-75
2023/03/19 10:50:22;;;;;;;14.63;6.57;;;16.00;68.90;;;;;;4807863;29;20344;-75
2023/03/19 10:52:51;;;;;;;13.60;6.45;;;16.00;68.70;;;;;;4807842;29;20090;-74
2023/03/19 10:55:22;;;;;;;10.80;6.22;;;16.00;68.70;;;;;;4808065;29;20061;-74
2023/03/19 10:57:50;;;;;;;10.77;5.40;;;16.00;68.70;;;;;;4807745;29;20059;-75
2023/03/19 11:00:18;;;;;;;11.85;5.88;;;16.00;68.70;;;;;;4807785;29;20059;-74
2023/03/19 11:02:55;;;;;;;11.50;5.93;;;16.00;68.70;;;;;;4805029;29;20055;-75
2023/03/19 11:05:20;;;;;;;10.07;5.15;;;16.00;68.60;;;;;;4793871;29;20138;-74
2023/03/19 11:07:55;;;;;;;9.65;5.45;;;16.10;68.70;;;;;;4792666;30;20159;-75
2023/03/19 11:10:23;;;;;;;10.30;5.70;;;16.10;68.50;;;;;;4793408;29;20062;-74
2023/03/19 11:13:04;;;;;;;10.65;5.78;;;16.10;68.40;;;;;;4793412;29;20051;-74
2023/03/19 11:15:39;;;;;;;11.93;5.30;;;16.10;68.80;;;;;;4793024;29;20051;-74
2023/03/19 11:18:19;;;;;;;13.52;5.78;;;16.10;69.10;;;;;;4793204;29;20055;-75
2023/03/19 11:21:03;;;;;;;10.48;5.85;;;16.10;69.20;;;;;;4793626;29;20348;-75
2023/03/19 11:23:36;;;;;;;10.82;5.45;;;16.10;69.10;;;;;;4792807;29;20051;-75
2023/03/19 11:26:02;;;;;;;10.52;5.13;;;16.10;69.10;;;;;;4824380;29;20055;-74
2023/03/19 11:28:32;;;;;;;13.65;5.53;;;16.10;69.50;;;;;;4810727;29;20101;-74
2023/03/19 11:31:20;;;;;;;15.75;5.00;;;16.10;69.50;;;;;;4806520;29;20062;-75
2023/03/19 11:34:17;;;;;;;8.52;5.47;;;16.10;69.60;;;;;;4809824;29;20047;-75
2023/03/19 11:37:04;;;;;;;17.05;7.57;;;16.10;69.50;;;;;;4810904;29;20065;-74
2023/03/19 11:39:44;;;;;;;29.10;8.73;;;16.10;69.20;;;;;;4807875;29;20367;-75
2023/03/19 11:42:28;;;;;;;47.20;9.68;;;16.10;69.30;;;;;;4792963;29;20127;-75
2023/03/19 11:45:15;;;;;;;37.30;8.13;;;16.10;70.30;;;;;;4792690;29;20055;-76
2023/03/19 11:48:18;;;;;;;40.22;10.15;;;16.20;70.10;;;;;;4799923;29;20074;-76
2023/03/19 11:50:48;;;;;;;31.80;8.65;;;16.20;70.20;;;;;;4798250;29;20062;-77
2023/03/19 11:53:34;;;;;;;41.28;9.60;;;16.30;70.20;;;;;;4792575;29;20071;-77
2023/03/19 11:56:18;;;;;;;27.90;8.15;;;16.30;70.30;;;;;;4792723;29;20085;-76
2023/03/19 11:59:19;;;;;;;27.05;6.85;;;16.30;70.50;;;;;;4799875;29;20067;-73
2023/03/19 12:02:12;;;;;;;26.48;8.38;;;16.40;70.60;;;;;;4786297;29;20055;-75
2023/03/19 12:04:53;;;;;;;31.85;7.30;;;16.40;70.70;;;;;;4792155;29;20058;-74
2023/03/19 12:07:33;;;;;;;36.10;7.55;;;16.40;70.60;;;;;;4792490;30;20051;-75
2023/03/19 12:10:29;;;;;;;26.38;6.60;;;16.40;70.60;;;;;;4792245;29;20094;-75
2023/03/19 12:13:15;;;;;;;27.50;7.40;;;16.50;71.00;;;;;;4791804;29;20051;-75
2023/03/19 12:16:06;;;;;;;34.22;9.05;;;16.50;70.80;;;;;;4806580;29;20134;-76
2023/03/19 12:18:51;;;;;;;24.88;8.75;;;16.50;70.50;;;;;;4821776;29;20058;-75
2023/03/19 12:21:35;;;;;;;28.55;8.75;;;16.40;70.40;;;;;;4809589;29;20481;-75
2023/03/19 12:24:38;;;;;;;33.00;8.05;;;16.40;70.40;;;;;;4810050;29;20055;-75
2023/03/19 12:27:27;;;;;;;31.55;8.75;;;16.40;70.60;;;;;;4794734;29;20046;-74
2023/03/19 12:30:10;;;;;;;28.83;8.20;;;16.40;71.00;;;;;;4799623;29;20086;-75
2023/03/19 12:33:06;;;;;;;31.38;9.18;;;16.40;70.90;;;;;;4807269;29;20117;-76
2023/03/19 12:35:40;;;;;;;38.00;9.43;;;16.30;71.00;;;;;;4808951;29;20047;-76
2023/03/19 12:38:19;;;;;;;32.35;8.18;;;16.30;71.20;;;;;;4809979;29;20061;-74
2023/03/19 12:40:53;;;;;;;38.30;9.85;;;16.30;70.90;;;;;;4809805;29;20442;-82
2023/03/19 12:43:52;;;;;;;27.95;9.32;;;16.30;71.60;;;;;;4793392;29;20051;-83
2023/03/19 12:46:26;;;;;;;39.08;10.32;;;16.30;72.20;;;;;;4808960;29;20051;-78
2023/03/19 12:48:59;;;;;;;32.08;9.88;;;16.30;71.90;;;;;;4809451;29;20054;-78
2023/03/19 12:51:28;;;;;;;20.48;8.20;;;16.30;71.60;;;;;;4783526;29;20055;-82
2023/03/19 12:54:00;;;;;;;29.25;9.57;;;16.30;71.40;;;;;;4787436;29;20053;-81
2023/03/19 12:56:54;;;;;;;29.63;9.63;;;16.30;71.20;;;;;;4822291;29;20410;-83
2023/03/19 12:59:35;;;;;;;;;;;16.30;71.10;;;;;;4807875;29;20075;-82
2023/03/19 13:02:23;;;;;;;31.05;9.52;;;16.30;71.00;;;;;;4802465;29;19936;-84
2023/03/19 13:05:08;;;;;;;30.92;9.40;;;16.30;71.10;;;;;;4807167;29;20053;-81
2023/03/19 13:07:58;;;;;;;22.65;9.20;;;16.30;71.10;;;;;;4806857;29;20055;-81
2023/03/19 13:10:25;;;;;;;21.73;8.80;;;16.40;71.10;;;;;;4806441;29;20054;-80
2023/03/19 13:12:53;;;;;;;20.85;9.73;;;16.40;71.70;;;;;;4803082;29;20054;-82
2023/03/19 13:15:36;;;;;;;25.83;9.45;;;16.40;71.10;;;;;;4805944;29;20043;-80
2023/03/19 13:18:36;;;;;;;22.77;9.35;;;16.40;71.10;;;;;;4805834;29;20126;-79
2023/03/19 13:21:22;;;;;;;23.23;9.57;;;16.40;71.00;;;;;;4806394;29;20442;-82
2023/03/19 13:24:20;;;;;;;22.77;9.13;;;16.40;71.00;;;;;;4806409;29;20058;-82
2023/03/19 13:26:48;;;;;;;18.05;8.27;;;16.40;71.10;;;;;;4806949;29;20063;-82
2023/03/19 13:29:31;;;;;;;21.60;8.77;;;16.40;71.20;;;;;;4806562;29;20046;-80
2023/03/19 13:32:04;;;;;;;18.45;8.27;;;16.40;71.10;;;;;;4808020;29;20058;-79
2023/03/19 13:34:35;;;;;;;23.98;9.15;;;16.50;71.30;;;;;;4807657;29;20055;-80
2023/03/19 13:37:20;;;;;;;23.77;9.20;;;16.40;71.50;;;;;;4808243;29;20047;-80
2023/03/19 13:39:47;;;;;;;20.85;9.13;;;16.40;71.50;;;;;;4808451;29;20051;-80
2023/03/19 13:42:40;;;;;;;24.13;8.43;;;16.40;71.80;;;;;;4807750;29;20054;-79
2023/03/19 13:45:34;;;;;;;25.35;8.90;;;16.40;71.90;;;;;;4794307;29;20202;-79
2023/03/19 13:48:26;;;;;;;24.60;9.85;;;16.40;72.00;;;;;;4790321;29;20148;-79
2023/03/19 13:51:08;;;;;;;17.33;8.48;;;16.40;71.90;;;;;;4794638;29;20454;-77
2023/03/19 13:53:37;;;;;;;23.50;9.13;;;16.40;71.80;;;;;;4808044;29;20517;-78
2023/03/19 13:56:07;;;;;;;19.80;8.52;;;16.30;71.70;;;;;;4808627;29;20050;-77
2023/03/19 13:58:51;;;;;;;24.55;9.48;;;16.40;71.80;;;;;;4808177;29;20065;-78
2023/03/19 14:01:26;;;;;;;20.83;7.80;;;16.40;71.90;;;;;;4792627;29;20477;-78
2023/03/19 14:03:53;;;;;;;23.73;8.75;;;16.40;71.80;;;;;;4790057;29;20427;-78
2023/03/19 14:06:49;;;;;;;19.25;8.23;;;16.40;71.70;;;;;;4819805;29;20130;-78
2023/03/19 14:09:38;;;;;;;19.08;10.55;;;16.40;71.60;;;;;;4789881;30;20063;-80
2023/03/19 14:12:37;;;;;;;18.80;10.40;;;16.40;71.30;;;;;;4790100;29;20057;-80
2023/03/19 14:15:18;;;;;;;25.00;10.23;;;16.40;70.80;;;;;;4787325;29;20055;-83
2023/03/19 14:17:54;;;;;;;23.52;10.57;;;16.30;70.40;;;;;;4807249;29;20142;-77
2023/03/19 14:20:32;;;;;;;23.15;10.00;;;16.30;70.30;;;;;;4807659;29;20454;-77
2023/03/19 14:23:23;;;;;;;24.20;10.88;;;16.40;70.20;;;;;;4807953;29;20058;-78
2023/03/19 14:25:55;;;;;;;18.88;9.63;;;16.40;70.40;;;;;;4807066;29;20086;-77
2023/03/19 14:28:35;;;;;;;24.77;10.13;;;16.40;70.70;;;;;;4807496;29;20058;-81
2023/03/19 14:31:02;;;;;;;24.13;9.57;;;16.40;70.70;;;;;;4791308;29;20097;-77
2023/03/19 14:33:38;;;;;;;30.65;10.60;;;16.40;70.90;;;;;;4807206;29;20149;-77
2023/03/19 14:36:05;;;;;;;30.08;12.48;;;16.40;71.10;;;;;;4810853;29;20129;-76
2023/03/19 14:38:42;;;;;;;42.13;13.73;;;16.40;71.40;;;;;;4811270;29;20486;-77
2023/03/19 14:41:15;;;;;;;32.70;12.05;;;16.40;71.80;;;;;;4810989;29;20055;-77
2023/03/19 14:44:18;;;;;;;43.10;15.85;;;16.40;72.10;;;;;;4811865;29;20061;-78
2023/03/19 14:47:06;;;;;;;38.10;14.25;;;16.40;72.90;;;;;;4810401;29;20055;-78
2023/03/19 14:49:50;;;;;;;39.08;13.30;;;16.50;73.20;;;;;;4811312;29;20070;-77
2023/03/19 14:52:31;;;;;;;32.63;16.63;;;16.50;73.00;;;;;;4811385;29;20051;-77
2023/03/19 14:54:59;;;;;;;31.10;15.65;;;16.50;72.50;;;;;;4811092;29;20111;-77
2023/03/19 14:57:31;;;;;;;37.05;19.73;;;16.50;72.00;;;;;;4811553;29;20107;-77
2023/03/19 14:59:58;;;;;;;31.58;16.65;;;16.40;72.00;;;;;;4806909;29;20066;-78
2023/03/19 15:02:37;;;;;;;35.80;16.23;;;16.40;71.40;;;;;;4793216;29;20054;-77
2023/03/19 15:05:07;;;;;;;34.60;16.70;;;16.40;71.00;;;;;;4793177;29;20533;-77
2023/03/19 15:07:42;;;;;;;37.88;16.25;;;16.40;71.60;;;;;;4793298;30;20054;-77
2023/03/19 15:10:16;;;;;;;31.35;15.07;;;16.40;72.30;;;;;;4802697;29;20359;-78
2023/03/19 15:13:26;;;;;;;45.13;15.05;;;16.40;72.30;;;;;;4806656;29;20059;-77
2023/03/19 15:16:12;;;;;;;26.98;13.07;;;16.50;72.50;;;;;;4793362;29;20058;-78
2023/03/19 15:18:38;;;;;;;27.88;12.60;;;16.50;72.50;;;;;;4793123;30;20059;-77
2023/03/19 15:21:05;;;;;;;25.63;13.70;;;16.60;72.60;;;;;;4792930;29;20429;-77
2023/03/19 15:23:31;;;;;;;31.40;13.38;;;16.60;72.60;;;;;;4792237;29;20482;-78
2023/03/19 15:26:00;;;;;;;31.42;13.40;;;16.60;72.70;;;;;;4792995;29;20379;-77
2023/03/19 15:28:33;;;;;;;24.95;12.52;;;16.60;72.70;;;;;;4793107;29;20515;-78
2023/03/19 15:31:04;;;;;;;25.38;11.20;;;16.60;72.90;;;;;;4803260;29;20125;-77
2023/03/19 15:33:37;;;;;;;27.08;12.30;;;16.70;73.10;;;;;;4808418;29;20126;-77
2023/03/19 15:36:22;;;;;;;34.00;12.23;;;16.70;73.20;;;;;;4810773;29;20089;-77
2023/03/19 15:39:07;;;;;;;28.90;11.95;;;16.60;73.10;;;;;;4809951;29;20058;-78
2023/03/19 15:41:39;;;;;;;30.25;11.55;;;16.60;73.10;;;;;;4810552;29;20051;-78
2023/03/19 15:44:09;;;;;;;32.97;11.40;;;16.60;73.00;;;;;;4810627;29;20042;-78
2023/03/19 15:46:37;;;;;;;32.35;10.55;;;16.60;73.00;;;;;;4809903;29;20138;-77
2023/03/19 15:49:20;;;;;;;28.83;11.18;;;16.50;72.90;;;;;;4810714;29;20055;-77
2023/03/19 15:51:52;;;;;;;35.65;10.80;;;16.50;72.90;;;;;;4810749;29;20055;-78
2023/03/19 15:54:19;;;;;;;34.55;11.18;;;16.50;73.00;;;;;;4809750;29;20448;-78
2023/03/19 15:56:46;;;;;;;28.17;10.60;;;16.60;73.00;;;;;;4799120;29;20051;-78
2023/03/19 15:59:20;;;;;;;33.85;9.95;;;16.60;73.00;;;;;;4797173;29;20047;-79
2023/03/19 16:02:01;;;;;;;22.23;9.73;;;16.60;72.90;;;;;;4796021;29;20051;-78
2023/03/19 16:04:29;;;;;;;31.60;8.98;;;16.60;72.90;;;;;;4810236;29;20058;-82
2023/03/19 16:06:57;;;;;;;34.05;10.25;;;16.60;72.60;;;;;;4809030;29;20051;-79
2023/03/19 16:09:28;;;;;;;29.67;9.23;;;16.60;72.40;;;;;;4810290;29;20051;-79
2023/03/19 16:11:54;;;;;;;27.27;9.15;;;16.60;72.40;;;;;;4810227;29;20046;-77
2023/03/19 16:14:23;;;;;;;26.38;9.52;;;16.70;72.50;;;;;;4809381;29;20131;-79
2023/03/19 16:16:50;;;;;;;24.77;9.05;;;16.70;72.50;;;;;;4805582;29;20126;-79
2023/03/19 16:19:48;;;;;;;27.70;8.70;;;16.70;72.60;;;;;;4806158;29;20055;-81
2023/03/19 16:22:24;;;;;;;24.15;8.60;;;16.70;72.90;;;;;;4801433;29;20070;-79
2023/03/19 16:24:52;;;;;;;27.35;8.00;;;16.70;72.80;;;;;;4791072;30;20064;-81
2023/03/19 16:27:29;;;;;;;23.48;8.73;;;16.80;73.50;;;;;;4791243;30;20128;-78
2023/03/19 16:29:57;;;;;;;31.95;9.40;;;16.80;73.40;;;;;;4792860;29;20147;-81
2023/03/19 16:32:25;;;;;;;34.47;9.15;;;16.80;73.50;;;;;;4798773;29;20047;-77
2023/03/19 16:35:01;;;;;;;35.20;9.95;;;16.70;73.70;;;;;;4791814;29;20055;-81
2023/03/19 16:37:40;;;;;;;35.33;8.80;;;16.80;74.50;;;;;;4790420;30;20047;-76
2023/03/19 16:40:12;;;;;;;31.02;7.22;;;16.70;74.10;;;;;;4793387;29;20051;-77
2023/03/19 16:42:45;;;;;;;34.03;8.02;;;16.80;74.00;;;;;;4791387;30;20383;-78
2023/03/19 16:45:16;;;;;;;37.40;9.53;;;16.70;74.00;;;;;;4791747;30;20131;-78
2023/03/19 16:47:43;;;;;;;32.05;8.43;;;16.70;74.80;;;;;;4791288;30;20084;-77
2023/03/19 16:50:10;;;;;;;31.95;8.95;;;16.70;74.60;;;;;;4791373;30;20047;-77
2023/03/19 16:52:38;;;;;;;30.95;7.70;;;16.70;74.60;;;;;;4791414;30;20051;-77
2023/03/19 16:55:15;;;;;;;34.15;8.82;;;16.80;74.60;;;;;;4791572;30;20410;-77
2023/03/19 16:57:41;;;;;;;34.10;8.75;;;16.80;74.60;;;;;;4791111;29;20429;-76
2023/03/19 17:00:13;;;;;;;32.90;8.05;;;16.80;74.60;;;;;;4795813;29;20103;-77
2023/03/19 17:02:38;;;;;;;34.47;8.57;;;16.80;74.60;;;;;;4809035;29;20138;-77
2023/03/19 17:05:13;;;;;;;53.83;8.43;;;16.80;74.60;;;;;;4808727;29;20476;-79
2023/03/19 17:07:40;;;;;;;35.75;8.15;;;16.80;74.70;;;;;;4822791;29;20118;-79
2023/03/19 17:10:18;;;;;;;33.15;7.65;;;16.80;74.70;;;;;;4801203;29;20062;-75
2023/03/19 17:12:46;;;;;;;43.15;8.52;;;16.80;74.60;;;;;;4791744;29;20715;-77
2023/03/19 17:15:18;;;;;;;30.10;7.28;;;16.80;74.50;;;;;;4790985;29;20130;-78
2023/03/19 17:17:44;;;;;;;24.50;6.30;;;16.80;74.30;;;;;;4791132;29;20058;-78
2023/03/19 17:20:17;;;;;;;38.22;6.85;;;16.80;73.90;;;;;;4791056;29;20444;-78
2023/03/19 17:22:43;;;;;;;24.35;5.32;;;16.80;73.40;;;;;;4791034;29;20375;-77
2023/03/19 17:25:13;;;;;;;19.08;5.22;;;16.70;73.20;;;;;;4790924;30;20047;-77
2023/03/19 17:27:39;;;;;;;24.98;6.30;;;16.70;72.90;;;;;;4790866;29;20412;-78
2023/03/19 17:30:06;;;;;;;27.30;5.22;;;16.70;72.80;;;;;;4795419;29;20114;-77
2023/03/19 17:32:32;;;;;;;19.10;4.68;;;16.70;72.70;;;;;;4809174;29;20043;-77
2023/03/19 17:34:57;;;;;;;20.35;5.78;;;16.70;72.50;;;;;;4808820;29;20491;-77
2023/03/19 17:37:25;;;;;;;16.95;5.00;;;16.70;72.50;;;;;;4809480;29;20141;-77
2023/03/19 17:39:51;;;;;;;17.08;5.65;;;16.70;72.50;;;;;;4808884;29;20047;-77
2023/03/19 17:42:23;;;;;;;16.70;4.63;;;16.70;72.20;;;;;;4808331;29;20077;-77
2023/03/19 17:44:49;;;;;;;19.38;4.50;;;16.70;72.10;;;;;;4808726;29;20150;-77
2023/03/19 17:47:17;;;;;;;16.27;5.05;;;16.60;72.00;;;;;;4808079;29;20521;-78
2023/03/19 17:49:44;;;;;;;15.60;4.32;;;16.70;71.90;;;;;;4808577;29;20063;-78
2023/03/19 17:52:17;;;;;;;19.80;4.32;;;16.60;71.80;;;;;;4808545;29;20536;-78
2023/03/19 17:54:43;;;;;;;;;;;16.60;71.70;;;;;;4808430;29;20090;-78
2023/03/19 17:57:13;;;;;;;14.80;3.80;;;16.60;71.80;;;;;;4808191;29;19972;-78
2023/03/19 17:59:39;;;;;;;11.07;3.85;;;16.60;71.70;;;;;;4804419;29;20367;-77
2023/03/19 18:02:26;;;;;;;14.90;3.67;;;16.60;71.60;;;;;;4819755;29;20058;-78
2023/03/19 18:04:52;;;;;;;12.02;3.65;;;16.60;71.60;;;;;;4790923;30;20371;-78
2023/03/19 18:07:18;;;;;;;12.52;3.60;;;16.50;71.50;;;;;;4790208;29;20149;-77
2023/03/19 18:09:44;;;;;;;12.63;3.28;;;16.50;71.50;;;;;;4789798;29;20047;-78
2023/03/19 18:12:10;;;;;;;5.43;2.92;;;16.50;71.40;;;;;;4790256;29;20061;-79
2023/03/19 18:14:36;;;;;;;3.83;2.75;;;16.50;66.60;;;;;;4790426;30;20051;-79
2023/03/19 18:17:01;;;;;;;6.18;3.33;;;16.20;64.20;;;;;;4792754;29;20460;-79
2023/03/19 18:19:31;;;;;;;5.00;3.15;;;15.90;64.10;;;;;;4807644;29;20031;-78
2023/03/19 18:21:57;;;;;;;3.45;3.00;;;15.60;64.20;;;;;;4807172;29;20430;-79
2023/03/19 18:24:23;;;;;;;6.90;3.30;;;15.30;64.50;;;;;;4807620;29;20055;-79
2023/03/19 18:26:49;;;;;;;5.50;2.83;;;15.10;65.70;;;;;;4808107;29;20057;-79
